createdAt,value
2016-09-15T00:00:09.833Z,0
2016-09-15T00:00:50.375Z,0
2016-09-15T00:01:30.921Z,0
2016-09-15T00:02:11.469Z,0
2016-09-15T00:02:52.015Z,0
2016-09-15T00:03:32.559Z,0
2016-09-15T00:04:13.102Z,0
2016-09-15T00:04:53.652Z,0
2016-09-15T00:05:34.202Z,0
2016-09-15T00:06:14.753Z,0
2016-09-15T00:06:55.293Z,0
2016-09-15T00:07:35.848Z,0
2016-09-15T00:08:16.389Z,0
2016-09-15T00:08:56.939Z,0
2016-09-15T00:09:37.488Z,0
2016-09-15T00:10:18.034Z,0
2016-09-15T00:10:58.582Z,0
2016-09-15T00:11:39.130Z,0
2016-09-15T00:12:19.677Z,0
2016-09-15T00:13:00.222Z,0
2016-09-15T00:13:40.772Z,0
2016-09-15T00:14:21.313Z,0
2016-09-15T00:15:01.855Z,0
2016-09-15T00:15:42.402Z,0
2016-09-15T00:16:22.951Z,0
2016-09-15T00:17:03.494Z,0
2016-09-15T00:17:44.041Z,0
2016-09-15T00:18:24.585Z,0
2016-09-15T00:19:05.131Z,0
2016-09-15T00:19:45.678Z,0
2016-09-15T00:20:26.225Z,0
2016-09-15T00:21:06.774Z,0
2016-09-15T00:21:47.323Z,0
2016-09-15T00:22:27.873Z,0
2016-09-15T00:23:08.427Z,0
2016-09-15T00:23:48.968Z,0
2016-09-15T00:24:29.530Z,0
2016-09-15T00:25:10.080Z,0
2016-09-15T00:25:50.634Z,0
2016-09-15T00:26:31.180Z,0
2016-09-15T00:27:11.732Z,0
2016-09-15T00:27:52.281Z,0
2016-09-15T00:28:32.832Z,0
2016-09-15T00:29:13.387Z,0
2016-09-15T00:29:53.931Z,0
2016-09-15T00:30:34.473Z,0
2016-09-15T00:31:15.030Z,0
2016-09-15T00:31:55.567Z,0
2016-09-15T00:32:36.112Z,0
2016-09-15T00:33:16.664Z,0
2016-09-15T00:33:57.210Z,0
2016-09-15T00:34:37.730Z,0
2016-09-15T00:35:18.272Z,0
2016-09-15T00:35:58.808Z,0
2016-09-15T00:36:39.361Z,0
2016-09-15T00:37:19.898Z,0
2016-09-15T00:38:00.445Z,0
2016-09-15T00:38:40.995Z,0
2016-09-15T00:39:21.535Z,0
2016-09-15T00:40:02.079Z,0
2016-09-15T00:40:42.629Z,0
2016-09-15T00:41:23.178Z,0
2016-09-15T00:42:03.726Z,0
2016-09-15T00:42:44.261Z,0
2016-09-15T00:43:24.807Z,0
2016-09-15T00:44:05.362Z,0
2016-09-15T00:44:45.903Z,0
2016-09-15T00:45:26.459Z,0
2016-09-15T00:46:07.018Z,0
2016-09-15T00:46:47.536Z,0
2016-09-15T00:47:28.079Z,0
2016-09-15T00:48:08.625Z,0
2016-09-15T00:48:49.179Z,0
2016-09-15T00:49:29.722Z,0
2016-09-15T00:50:10.284Z,0
2016-09-15T00:50:50.828Z,0
2016-09-15T00:51:31.377Z,0
2016-09-15T00:52:11.929Z,0
2016-09-15T00:52:52.476Z,0
2016-09-15T00:53:33.028Z,0
2016-09-15T00:54:13.571Z,0
2016-09-15T00:54:54.122Z,0
2016-09-15T00:55:34.682Z,0
2016-09-15T00:56:15.203Z,0
2016-09-15T00:56:55.751Z,0
2016-09-15T00:57:36.302Z,0
2016-09-15T00:58:16.848Z,0
2016-09-15T00:58:57.398Z,0
2016-09-15T00:59:37.942Z,0
2016-09-15T01:00:18.492Z,0
2016-09-15T01:00:59.042Z,0
2016-09-15T01:01:39.583Z,0
2016-09-15T01:02:20.136Z,0
2016-09-15T01:03:00.663Z,0
2016-09-15T01:03:41.208Z,0
2016-09-15T01:04:21.752Z,0
2016-09-15T01:05:02.281Z,0
2016-09-15T01:05:42.835Z,0
2016-09-15T01:06:23.380Z,0
2016-09-15T01:07:03.930Z,0
2016-09-15T01:07:44.461Z,0
2016-09-15T01:08:24.990Z,0
2016-09-15T01:09:05.539Z,0
2016-09-15T01:09:46.082Z,0
2016-09-15T01:10:26.620Z,0
2016-09-15T01:11:07.156Z,0
2016-09-15T01:11:47.702Z,0
2016-09-15T01:12:28.256Z,0
2016-09-15T01:13:08.806Z,0
2016-09-15T01:13:49.355Z,0
2016-09-15T01:14:29.903Z,0
2016-09-15T01:15:10.454Z,0
2016-09-15T01:15:51.005Z,0
2016-09-15T01:16:31.553Z,0
2016-09-15T01:17:12.098Z,0
2016-09-15T01:17:52.645Z,0
2016-09-15T01:18:33.193Z,0
2016-09-15T01:19:13.746Z,0
2016-09-15T01:19:54.299Z,0
2016-09-15T01:20:34.845Z,0
2016-09-15T01:21:15.395Z,0
2016-09-15T01:21:55.944Z,0
2016-09-15T01:22:36.496Z,0
2016-09-15T01:23:17.033Z,0
2016-09-15T01:23:57.581Z,0
2016-09-15T01:24:38.130Z,0
2016-09-15T01:25:18.682Z,0
2016-09-15T01:25:59.232Z,0
2016-09-15T01:26:39.778Z,0
2016-09-15T01:27:20.321Z,0
2016-09-15T01:28:00.877Z,0
2016-09-15T01:28:41.425Z,0
2016-09-15T01:29:21.983Z,0
2016-09-15T01:30:02.530Z,0
2016-09-15T01:30:43.090Z,0
2016-09-15T01:31:23.631Z,0
2016-09-15T01:32:04.188Z,0
2016-09-15T01:32:44.718Z,0
2016-09-15T01:33:25.268Z,0
2016-09-15T01:34:05.811Z,0
2016-09-15T01:34:46.355Z,0
2016-09-15T01:35:26.898Z,0
2016-09-15T01:36:07.432Z,0
2016-09-15T01:36:47.977Z,0
2016-09-15T01:37:28.510Z,0
2016-09-15T01:38:09.074Z,0
2016-09-15T01:38:49.622Z,0
2016-09-15T01:39:30.152Z,0
2016-09-15T01:40:10.703Z,0
2016-09-15T01:40:51.252Z,0
2016-09-15T01:41:31.799Z,0
2016-09-15T01:42:12.343Z,0
2016-09-15T01:42:52.893Z,0
2016-09-15T01:43:33.432Z,0
2016-09-15T01:44:13.985Z,0
2016-09-15T01:44:54.531Z,0
2016-09-15T01:45:35.071Z,0
2016-09-15T01:46:15.612Z,0
2016-09-15T01:46:56.154Z,0
2016-09-15T01:47:36.700Z,0
2016-09-15T01:48:17.245Z,0
2016-09-15T01:48:57.795Z,0
2016-09-15T01:49:38.345Z,0
2016-09-15T01:50:18.898Z,0
2016-09-15T01:50:59.442Z,0
2016-09-15T01:51:39.988Z,0
2016-09-15T01:52:20.531Z,0
2016-09-15T01:53:01.079Z,0
2016-09-15T01:53:41.634Z,0
2016-09-15T01:54:22.179Z,0
2016-09-15T01:55:02.718Z,0
2016-09-15T01:55:43.269Z,0
2016-09-15T01:56:23.805Z,0
2016-09-15T01:57:04.358Z,0
2016-09-15T01:57:44.894Z,0
2016-09-15T01:58:25.436Z,0
2016-09-15T01:59:05.970Z,0
2016-09-15T01:59:46.514Z,0
2016-09-15T02:00:27.063Z,0
2016-09-15T02:01:07.608Z,0
2016-09-15T02:01:48.154Z,0
2016-09-15T02:02:28.701Z,0
2016-09-15T02:03:09.248Z,0
2016-09-15T02:03:49.793Z,0
2016-09-15T02:04:30.359Z,0
2016-09-15T02:05:10.910Z,0
2016-09-15T02:05:51.462Z,0
2016-09-15T02:06:32.005Z,0
2016-09-15T02:07:12.553Z,0
2016-09-15T02:07:53.105Z,0
2016-09-15T02:08:33.639Z,0
2016-09-15T02:09:14.187Z,0
2016-09-15T02:09:54.736Z,0
2016-09-15T02:10:35.266Z,0
2016-09-15T02:11:15.833Z,0
2016-09-15T02:11:56.366Z,0
2016-09-15T02:12:36.912Z,0
2016-09-15T02:13:17.447Z,0
2016-09-15T02:13:57.993Z,0
2016-09-15T02:14:38.531Z,0
2016-09-15T02:15:19.082Z,0
2016-09-15T02:15:59.620Z,0
2016-09-15T02:16:40.165Z,0
2016-09-15T02:17:20.695Z,0
2016-09-15T02:18:01.256Z,0
2016-09-15T02:18:41.812Z,0
2016-09-15T02:19:22.361Z,0
2016-09-15T02:20:02.909Z,0
2016-09-15T02:20:43.448Z,0
2016-09-15T02:21:23.998Z,0
2016-09-15T02:22:04.560Z,0
2016-09-15T02:22:45.115Z,0
2016-09-15T02:23:25.648Z,0
2016-09-15T02:24:06.201Z,0
2016-09-15T02:24:46.737Z,0
2016-09-15T02:25:27.292Z,0
2016-09-15T02:26:07.839Z,0
2016-09-15T02:26:48.389Z,0
2016-09-15T02:27:28.931Z,0
2016-09-15T02:28:09.481Z,0
2016-09-15T02:28:50.030Z,0
2016-09-15T02:29:30.581Z,0
2016-09-15T02:30:11.125Z,0
2016-09-15T02:30:51.674Z,0
2016-09-15T02:31:32.217Z,0
2016-09-15T02:32:12.752Z,0
2016-09-15T02:32:53.298Z,0
2016-09-15T02:33:33.843Z,0
2016-09-15T02:34:14.396Z,0
2016-09-15T02:34:54.943Z,0
2016-09-15T02:35:35.490Z,0
2016-09-15T02:36:16.037Z,0
2016-09-15T02:36:56.578Z,0
2016-09-15T02:37:37.129Z,0
2016-09-15T02:38:17.675Z,0
2016-09-15T02:38:58.225Z,0
2016-09-15T02:39:38.766Z,0
2016-09-15T02:40:19.313Z,0
2016-09-15T02:40:59.858Z,0
2016-09-15T02:41:40.410Z,0
2016-09-15T02:42:20.951Z,0
2016-09-15T02:43:01.513Z,0
2016-09-15T02:43:42.056Z,0
2016-09-15T02:44:22.577Z,0
2016-09-15T02:45:03.126Z,0
2016-09-15T02:45:43.672Z,0
2016-09-15T02:46:24.213Z,0
2016-09-15T02:47:04.762Z,0
2016-09-15T02:47:45.312Z,0
2016-09-15T02:48:25.862Z,0
2016-09-15T02:49:06.410Z,0
2016-09-15T02:49:46.962Z,0
2016-09-15T02:50:27.513Z,0
2016-09-15T02:51:08.054Z,0
2016-09-15T02:51:48.603Z,0
2016-09-15T02:52:29.149Z,0
2016-09-15T02:53:09.700Z,0
2016-09-15T02:53:50.245Z,0
2016-09-15T02:54:30.787Z,0
2016-09-15T02:55:11.350Z,0
2016-09-15T02:55:51.901Z,0
2016-09-15T02:56:32.440Z,0
2016-09-15T02:57:13.001Z,0
2016-09-15T02:57:53.553Z,0
2016-09-15T02:58:34.092Z,0
2016-09-15T02:59:14.636Z,0
2016-09-15T02:59:55.181Z,0
2016-09-15T03:00:35.731Z,0
2016-09-15T03:01:16.280Z,0
2016-09-15T03:01:56.830Z,0
2016-09-15T03:02:37.368Z,0
2016-09-15T03:03:17.905Z,0
2016-09-15T03:03:58.450Z,0
2016-09-15T03:04:38.992Z,0
2016-09-15T03:05:19.542Z,0
2016-09-15T03:06:00.086Z,0
2016-09-15T03:06:40.631Z,0
2016-09-15T03:07:21.179Z,0
2016-09-15T03:08:01.728Z,0
2016-09-15T03:08:42.276Z,0
2016-09-15T03:09:22.823Z,0
2016-09-15T03:10:03.369Z,0
2016-09-15T03:10:43.906Z,0
2016-09-15T03:11:24.450Z,0
2016-09-15T03:12:04.989Z,0
2016-09-15T03:12:45.542Z,0
2016-09-15T03:13:26.092Z,0
2016-09-15T03:14:06.632Z,0
2016-09-15T03:14:47.189Z,0
2016-09-15T03:15:27.743Z,0
2016-09-15T03:16:08.271Z,0
2016-09-15T03:16:48.815Z,0
2016-09-15T03:17:29.363Z,0
2016-09-15T03:18:09.906Z,0
2016-09-15T03:18:50.452Z,0
2016-09-15T03:19:30.995Z,0
2016-09-15T03:20:11.543Z,0
2016-09-15T03:20:52.093Z,0
2016-09-15T03:21:32.638Z,0
2016-09-15T03:22:13.174Z,0
2016-09-15T03:22:53.718Z,0
2016-09-15T03:23:34.264Z,0
2016-09-15T03:24:14.813Z,0
2016-09-15T03:24:55.356Z,0
2016-09-15T03:25:35.909Z,0
2016-09-15T03:26:16.451Z,0
2016-09-15T03:26:57.008Z,0
2016-09-15T03:27:37.553Z,0
2016-09-15T03:28:18.098Z,0
2016-09-15T03:28:58.631Z,0
2016-09-15T03:29:39.178Z,0
2016-09-15T03:30:19.733Z,0
2016-09-15T03:31:00.278Z,0
2016-09-15T03:31:40.821Z,0
2016-09-15T03:32:21.368Z,0
2016-09-15T03:33:01.909Z,0
2016-09-15T03:33:42.462Z,0
2016-09-15T03:34:23.021Z,0
2016-09-15T03:35:03.555Z,0
2016-09-15T03:35:44.099Z,0
2016-09-15T03:36:24.649Z,0
2016-09-15T03:37:05.205Z,0
2016-09-15T03:37:45.748Z,0
2016-09-15T03:38:26.297Z,0
2016-09-15T03:39:06.846Z,0
2016-09-15T03:39:47.397Z,0
2016-09-15T03:40:27.947Z,0
2016-09-15T03:41:08.486Z,0
2016-09-15T03:41:49.034Z,0
2016-09-15T03:42:29.579Z,0
2016-09-15T03:43:10.128Z,0
2016-09-15T03:43:50.676Z,0
2016-09-15T03:44:31.264Z,0
2016-09-15T03:45:11.759Z,0
2016-09-15T03:45:52.295Z,0
2016-09-15T03:46:32.839Z,0
2016-09-15T03:47:13.371Z,0
2016-09-15T03:47:53.916Z,0
2016-09-15T03:48:34.469Z,0
2016-09-15T03:49:15.012Z,0
2016-09-15T03:49:55.551Z,0
2016-09-15T03:50:36.109Z,0
2016-09-15T03:51:16.671Z,0
2016-09-15T03:51:57.230Z,0
2016-09-15T03:52:37.777Z,0
2016-09-15T03:53:18.323Z,0
2016-09-15T03:53:58.872Z,0
2016-09-15T03:54:39.468Z,0
2016-09-15T03:55:20.026Z,0
2016-09-15T03:56:00.579Z,0
2016-09-15T03:56:41.136Z,0
2016-09-15T03:57:21.678Z,0
2016-09-15T03:58:02.224Z,0
2016-09-15T03:58:42.773Z,0
2016-09-15T03:59:23.313Z,0
2016-09-15T04:00:03.861Z,0
2016-09-15T04:00:44.407Z,0
2016-09-15T04:01:24.954Z,0
2016-09-15T04:02:05.506Z,0
2016-09-15T04:02:46.050Z,0
2016-09-15T04:03:26.594Z,0
2016-09-15T04:04:07.137Z,0
2016-09-15T04:04:47.684Z,0
2016-09-15T04:05:28.226Z,0
2016-09-15T04:06:08.862Z,0
2016-09-15T04:06:49.430Z,0
2016-09-15T04:07:29.970Z,0
2016-09-15T04:08:10.551Z,0
2016-09-15T04:08:51.100Z,0
2016-09-15T04:09:31.659Z,0
2016-09-15T04:10:12.197Z,0
2016-09-15T04:10:52.750Z,0
2016-09-15T04:11:33.374Z,0
2016-09-15T04:12:13.923Z,0
2016-09-15T04:12:54.453Z,0
2016-09-15T04:13:35.002Z,0
2016-09-15T04:14:15.544Z,0
2016-09-15T04:14:56.088Z,0
2016-09-15T04:15:36.629Z,0
2016-09-15T04:16:17.172Z,0
2016-09-15T04:16:57.716Z,0
2016-09-15T04:17:38.256Z,0
2016-09-15T04:18:18.796Z,0
2016-09-15T04:18:59.345Z,0
2016-09-15T04:19:39.893Z,0
2016-09-15T04:20:20.443Z,0
2016-09-15T04:21:00.996Z,0
2016-09-15T04:21:41.537Z,0
2016-09-15T04:22:22.084Z,0
2016-09-15T04:23:02.636Z,0
2016-09-15T04:23:43.190Z,0
2016-09-15T04:24:23.739Z,0
2016-09-15T04:25:04.287Z,0
2016-09-15T04:25:44.839Z,0
2016-09-15T04:26:25.388Z,0
2016-09-15T04:27:05.934Z,0
2016-09-15T04:27:46.484Z,0
2016-09-15T04:28:27.035Z,0
2016-09-15T04:29:07.585Z,0
2016-09-15T04:29:48.125Z,0
2016-09-15T04:30:28.672Z,0
2016-09-15T04:31:09.224Z,0
2016-09-15T04:31:49.811Z,0
2016-09-15T04:32:30.360Z,0
2016-09-15T04:33:11.836Z,0
2016-09-15T04:33:52.387Z,0
2016-09-15T04:34:32.940Z,0
2016-09-15T04:35:13.489Z,0
2016-09-15T04:35:54.041Z,0
2016-09-15T04:36:34.594Z,0
2016-09-15T04:37:15.125Z,0
2016-09-15T04:37:55.675Z,0
2016-09-15T04:38:36.226Z,0
2016-09-15T04:39:16.769Z,0
2016-09-15T04:39:57.316Z,0
2016-09-15T04:40:37.866Z,0
2016-09-15T04:41:18.408Z,0
2016-09-15T04:41:58.956Z,0
2016-09-15T04:42:39.501Z,0
2016-09-15T04:43:20.021Z,0
2016-09-15T04:44:00.567Z,0
2016-09-15T04:44:41.187Z,0
2016-09-15T04:45:21.722Z,0
2016-09-15T04:46:02.266Z,0
2016-09-15T04:46:42.830Z,0
2016-09-15T04:47:23.341Z,0
2016-09-15T04:48:03.869Z,0
2016-09-15T04:48:44.413Z,0
2016-09-15T04:49:24.967Z,0
2016-09-15T04:50:05.511Z,0
2016-09-15T04:50:46.046Z,0
2016-09-15T04:51:26.601Z,0
2016-09-15T04:52:07.128Z,0
2016-09-15T04:52:47.683Z,0
2016-09-15T04:53:28.231Z,0
2016-09-15T04:54:08.782Z,0
2016-09-15T04:54:49.335Z,0
2016-09-15T04:55:29.873Z,0
2016-09-15T04:56:10.429Z,0
2016-09-15T04:56:50.968Z,0
2016-09-15T04:57:31.505Z,0
2016-09-15T04:58:12.103Z,0
2016-09-15T04:58:52.655Z,0
2016-09-15T04:59:33.214Z,0
2016-09-15T05:00:13.767Z,5
2016-09-15T05:00:54.318Z,5
2016-09-15T05:01:34.858Z,5
2016-09-15T05:02:15.420Z,5
2016-09-15T05:02:55.959Z,5
2016-09-15T05:03:36.518Z,5
2016-09-15T05:04:17.068Z,5
2016-09-15T05:04:57.619Z,5
2016-09-15T05:05:38.171Z,5
2016-09-15T05:06:18.726Z,5
2016-09-15T05:06:59.276Z,5
2016-09-15T05:07:39.827Z,10
2016-09-15T05:08:20.378Z,10
2016-09-15T05:09:00.926Z,10
2016-09-15T05:09:41.488Z,10
2016-09-15T05:10:22.031Z,10
2016-09-15T05:11:02.564Z,10
2016-09-15T05:11:43.109Z,10
2016-09-15T05:12:23.655Z,15
2016-09-15T05:13:04.206Z,15
2016-09-15T05:13:44.756Z,15
2016-09-15T05:14:25.307Z,15
2016-09-15T05:15:05.858Z,15
2016-09-15T05:15:46.399Z,15
2016-09-15T05:16:26.950Z,20
2016-09-15T05:17:07.485Z,20
2016-09-15T05:17:48.042Z,20
2016-09-15T05:18:28.567Z,20
2016-09-15T05:19:09.120Z,20
2016-09-15T05:19:49.640Z,25
2016-09-15T05:20:30.181Z,25
2016-09-15T05:21:10.726Z,25
2016-09-15T05:21:51.276Z,25
2016-09-15T05:22:31.828Z,25
2016-09-15T05:23:12.361Z,30
2016-09-15T05:23:52.917Z,30
2016-09-15T05:24:33.469Z,30
2016-09-15T05:25:14.008Z,30
2016-09-15T05:25:54.558Z,30
2016-09-15T05:26:35.090Z,35
2016-09-15T05:27:15.640Z,35
2016-09-15T05:27:56.180Z,35
2016-09-15T05:28:36.727Z,35
2016-09-15T05:29:17.281Z,40
2016-09-15T05:29:57.818Z,40
2016-09-15T05:30:38.384Z,40
2016-09-15T05:31:18.924Z,40
2016-09-15T05:31:59.467Z,40
2016-09-15T05:32:40.006Z,45
2016-09-15T05:33:20.558Z,45
2016-09-15T05:34:01.106Z,45
2016-09-15T05:34:41.662Z,45
2016-09-15T05:35:22.200Z,50
2016-09-15T05:36:02.743Z,50
2016-09-15T05:36:43.290Z,50
2016-09-15T05:37:23.837Z,50
2016-09-15T05:38:04.371Z,55
2016-09-15T05:38:44.914Z,55
2016-09-15T05:39:25.452Z,55
2016-09-15T05:40:06.001Z,55
2016-09-15T05:40:46.554Z,60
2016-09-15T05:41:27.094Z,60
2016-09-15T05:42:07.619Z,60
2016-09-15T05:42:48.183Z,60
2016-09-15T05:43:28.718Z,60
2016-09-15T05:44:09.269Z,65
2016-09-15T05:44:49.819Z,65
2016-09-15T05:45:30.371Z,65
2016-09-15T05:46:10.914Z,65
2016-09-15T05:46:51.454Z,70
2016-09-15T05:47:32.005Z,70
2016-09-15T05:48:12.554Z,70
2016-09-15T05:48:53.099Z,70
2016-09-15T05:49:33.650Z,75
2016-09-15T05:50:14.188Z,75
2016-09-15T05:50:54.748Z,75
2016-09-15T05:51:35.290Z,75
2016-09-15T05:52:15.845Z,80
2016-09-15T05:52:56.388Z,80
2016-09-15T05:53:36.939Z,80
2016-09-15T05:54:17.478Z,80
2016-09-15T05:54:58.011Z,85
2016-09-15T05:55:38.550Z,85
2016-09-15T05:56:19.118Z,85
2016-09-15T05:56:59.663Z,85
2016-09-15T05:57:40.202Z,90
2016-09-15T05:58:20.741Z,90
2016-09-15T05:59:01.293Z,90
2016-09-15T05:59:41.836Z,90
2016-09-15T06:00:22.377Z,95
2016-09-15T06:01:02.903Z,95
2016-09-15T06:01:43.465Z,95
2016-09-15T06:02:24.018Z,95
2016-09-15T06:03:04.566Z,100
2016-09-15T06:03:45.116Z,100
2016-09-15T06:04:25.653Z,100
2016-09-15T06:05:06.205Z,100
2016-09-15T06:05:46.751Z,105
2016-09-15T06:06:27.296Z,105
2016-09-15T06:07:07.833Z,105
2016-09-15T06:07:48.376Z,105
2016-09-15T06:08:28.927Z,110
2016-09-15T06:09:09.468Z,110
2016-09-15T06:09:50.017Z,110
2016-09-15T06:10:30.555Z,110
2016-09-15T06:11:11.100Z,115
2016-09-15T06:11:51.648Z,115
2016-09-15T06:12:32.196Z,115
2016-09-15T06:13:12.736Z,115
2016-09-15T06:13:53.286Z,120
2016-09-15T06:14:33.830Z,120
2016-09-15T06:15:14.380Z,120
2016-09-15T06:15:54.927Z,120
2016-09-15T06:16:35.474Z,125
2016-09-15T06:17:16.021Z,125
2016-09-15T06:17:56.570Z,125
2016-09-15T06:18:37.114Z,125
2016-09-15T06:19:17.659Z,125
2016-09-15T06:19:58.206Z,130
2016-09-15T06:20:38.748Z,130
2016-09-15T06:21:19.292Z,130
2016-09-15T06:21:59.852Z,130
2016-09-15T06:22:40.369Z,135
2016-09-15T06:23:20.909Z,135
2016-09-15T06:24:01.459Z,135
2016-09-15T06:24:42.013Z,140
2016-09-15T06:25:22.559Z,140
2016-09-15T06:26:03.110Z,140
2016-09-15T06:26:43.647Z,140
2016-09-15T06:27:24.197Z,145
2016-09-15T06:28:04.741Z,145
2016-09-15T06:28:45.284Z,145
2016-09-15T06:29:25.839Z,145
2016-09-15T06:30:06.389Z,145
2016-09-15T06:30:46.933Z,150
2016-09-15T06:31:27.492Z,150
2016-09-15T06:32:08.029Z,150
2016-09-15T06:32:48.581Z,150
2016-09-15T06:33:29.113Z,155
2016-09-15T06:34:09.649Z,155
2016-09-15T06:34:50.194Z,155
2016-09-15T06:35:30.742Z,155
2016-09-15T06:36:11.280Z,160
2016-09-15T06:36:51.822Z,160
2016-09-15T06:37:32.373Z,160
2016-09-15T06:38:12.921Z,160
2016-09-15T06:38:53.474Z,165
2016-09-15T06:39:34.020Z,165
2016-09-15T06:40:14.576Z,165
2016-09-15T06:40:55.126Z,165
2016-09-15T06:41:35.682Z,170
2016-09-15T06:42:16.230Z,170
2016-09-15T06:42:56.782Z,170
2016-09-15T06:43:37.337Z,170
2016-09-15T06:44:17.879Z,175
2016-09-15T06:44:58.420Z,175
2016-09-15T06:45:38.969Z,175
2016-09-15T06:46:19.524Z,175
2016-09-15T06:47:00.072Z,180
2016-09-15T06:47:40.618Z,180
2016-09-15T06:48:21.183Z,180
2016-09-15T06:49:01.735Z,180
2016-09-15T06:49:42.275Z,180
2016-09-15T06:50:22.823Z,185
2016-09-15T06:51:03.357Z,185
2016-09-15T06:51:43.902Z,185
2016-09-15T06:52:24.465Z,185
2016-09-15T06:53:04.996Z,190
2016-09-15T06:53:45.534Z,190
2016-09-15T06:54:26.084Z,190
2016-09-15T06:55:06.635Z,190
2016-09-15T06:55:47.186Z,190
2016-09-15T06:56:27.725Z,195
2016-09-15T06:57:08.272Z,195
2016-09-15T06:57:48.816Z,195
2016-09-15T06:58:29.363Z,200
2016-09-15T06:59:09.905Z,200
2016-09-15T06:59:50.455Z,200
2016-09-15T07:00:31.003Z,200
2016-09-15T07:01:11.550Z,200
2016-09-15T07:01:52.100Z,205
2016-09-15T07:02:32.647Z,205
2016-09-15T07:03:13.190Z,205
2016-09-15T07:03:53.737Z,205
2016-09-15T07:04:34.289Z,205
2016-09-15T07:05:14.839Z,210
2016-09-15T07:05:55.387Z,210
2016-09-15T07:06:35.930Z,210
2016-09-15T07:07:16.470Z,215
2016-09-15T07:07:57.026Z,215
2016-09-15T07:08:37.570Z,215
2016-09-15T07:09:18.112Z,215
2016-09-15T07:09:58.652Z,220
2016-09-15T07:10:39.198Z,220
2016-09-15T07:11:19.749Z,220
2016-09-15T07:12:00.295Z,220
2016-09-15T07:12:40.842Z,220
2016-09-15T07:13:21.386Z,225
2016-09-15T07:14:01.934Z,225
2016-09-15T07:14:42.486Z,225
2016-09-15T07:15:23.034Z,230
2016-09-15T07:16:03.583Z,230
2016-09-15T07:16:44.131Z,230
2016-09-15T07:17:24.676Z,230
2016-09-15T07:18:05.219Z,235
2016-09-15T07:18:45.768Z,235
2016-09-15T07:19:26.318Z,235
2016-09-15T07:20:06.873Z,235
2016-09-15T07:20:47.421Z,240
2016-09-15T07:21:27.971Z,240
2016-09-15T07:22:08.519Z,240
2016-09-15T07:22:49.064Z,240
2016-09-15T07:23:29.610Z,245
2016-09-15T07:24:10.157Z,245
2016-09-15T07:24:50.708Z,245
2016-09-15T07:25:31.258Z,245
2016-09-15T07:26:11.803Z,250
2016-09-15T07:26:52.355Z,250
2016-09-15T07:27:32.905Z,250
2016-09-15T07:28:13.455Z,250
2016-09-15T07:28:54.008Z,255
2016-09-15T07:29:34.559Z,255
2016-09-15T07:30:15.106Z,255
2016-09-15T07:30:55.656Z,250
2016-09-15T07:31:36.215Z,255
2016-09-15T07:32:16.744Z,255
2016-09-15T07:32:57.277Z,260
2016-09-15T07:33:37.824Z,260
2016-09-15T07:34:18.383Z,260
2016-09-15T07:34:58.925Z,260
2016-09-15T07:35:39.470Z,260
2016-09-15T07:36:20.018Z,265
2016-09-15T07:37:00.568Z,265
2016-09-15T07:37:41.115Z,265
2016-09-15T07:38:21.664Z,265
2016-09-15T07:39:02.214Z,270
2016-09-15T07:39:42.760Z,270
2016-09-15T07:40:23.312Z,270
2016-09-15T07:41:03.865Z,270
2016-09-15T07:41:44.415Z,275
2016-09-15T07:42:24.964Z,275
2016-09-15T07:43:05.506Z,275
2016-09-15T07:43:46.055Z,280
2016-09-15T07:44:26.599Z,280
2016-09-15T07:45:07.153Z,280
2016-09-15T07:45:47.700Z,285
2016-09-15T07:46:28.239Z,285
2016-09-15T07:47:08.783Z,285
2016-09-15T07:47:49.328Z,290
2016-09-15T07:48:29.877Z,290
2016-09-15T07:49:10.425Z,290
2016-09-15T07:49:50.978Z,295
2016-09-15T07:50:31.528Z,295
2016-09-15T07:51:12.078Z,295
2016-09-15T07:51:52.628Z,300
2016-09-15T07:52:33.171Z,300
2016-09-15T07:53:13.738Z,300
2016-09-15T07:53:54.283Z,305
2016-09-15T07:54:34.835Z,305
2016-09-15T07:55:15.376Z,305
2016-09-15T07:55:55.924Z,305
2016-09-15T07:56:36.461Z,310
2016-09-15T07:57:17.002Z,310
2016-09-15T07:57:57.553Z,315
2016-09-15T07:58:38.097Z,315
2016-09-15T07:59:18.645Z,315
2016-09-15T07:59:59.197Z,320
2016-09-15T08:00:39.741Z,320
2016-09-15T08:01:20.291Z,325
2016-09-15T08:02:00.830Z,325
2016-09-15T08:02:41.379Z,355
2016-09-15T08:03:21.924Z,500
2016-09-15T08:04:02.474Z,535
2016-09-15T08:04:43.021Z,410
2016-09-15T08:05:23.575Z,350
2016-09-15T08:06:04.124Z,355
2016-09-15T08:06:44.675Z,345
2016-09-15T08:07:25.225Z,340
2016-09-15T08:08:05.781Z,370
2016-09-15T08:08:46.317Z,395
2016-09-15T08:09:26.914Z,390
2016-09-15T08:10:07.460Z,340
2016-09-15T08:10:48.004Z,335
2016-09-15T08:11:28.550Z,330
2016-09-15T08:12:09.101Z,335
2016-09-15T08:12:49.653Z,335
2016-09-15T08:13:30.194Z,340
2016-09-15T08:14:10.742Z,345
2016-09-15T08:14:51.279Z,355
2016-09-15T08:15:31.847Z,355
2016-09-15T08:16:12.396Z,360
2016-09-15T08:16:52.947Z,365
2016-09-15T08:17:33.496Z,360
2016-09-15T08:18:14.045Z,360
2016-09-15T08:18:54.596Z,365
2016-09-15T08:19:35.146Z,370
2016-09-15T08:20:15.695Z,370
2016-09-15T08:20:56.247Z,370
2016-09-15T08:21:36.800Z,375
2016-09-15T08:22:17.348Z,375
2016-09-15T08:22:57.895Z,375
2016-09-15T08:23:38.451Z,375
2016-09-15T08:24:18.999Z,380
2016-09-15T08:24:59.549Z,380
2016-09-15T08:25:40.097Z,385
2016-09-15T08:26:20.651Z,390
2016-09-15T08:27:01.205Z,395
2016-09-15T08:27:41.754Z,395
2016-09-15T08:28:22.304Z,400
2016-09-15T08:29:02.846Z,400
2016-09-15T08:29:43.405Z,405
2016-09-15T08:30:23.959Z,410
2016-09-15T08:31:04.508Z,415
2016-09-15T08:31:45.059Z,415
2016-09-15T08:32:25.596Z,410
2016-09-15T08:33:06.145Z,410
2016-09-15T08:33:46.696Z,415
2016-09-15T08:34:27.257Z,420
2016-09-15T08:35:07.809Z,425
2016-09-15T08:35:48.365Z,425
2016-09-15T08:36:28.914Z,425
2016-09-15T08:37:09.470Z,425
2016-09-15T08:37:50.020Z,430
2016-09-15T08:38:30.571Z,435
2016-09-15T08:39:11.128Z,440
2016-09-15T08:39:51.673Z,480
2016-09-15T08:40:32.220Z,905
2016-09-15T08:41:12.759Z,1540
2016-09-15T08:41:53.325Z,1980
2016-09-15T08:42:33.870Z,2060
2016-09-15T08:43:14.423Z,2060
2016-09-15T08:43:54.973Z,1935
2016-09-15T08:44:35.527Z,1500
2016-09-15T08:45:16.076Z,945
2016-09-15T08:45:56.632Z,520
2016-09-15T08:46:37.177Z,485
2016-09-15T08:47:17.747Z,810
2016-09-15T08:47:58.297Z,1275
2016-09-15T08:48:38.850Z,1480
2016-09-15T08:49:19.404Z,1320
2016-09-15T08:49:59.953Z,1465
2016-09-15T08:50:40.507Z,1865
2016-09-15T08:51:21.060Z,2120
2016-09-15T08:52:01.601Z,2050
2016-09-15T08:52:42.151Z,2140
2016-09-15T08:53:22.702Z,2155
2016-09-15T08:54:03.262Z,2190
2016-09-15T08:54:43.813Z,2195
2016-09-15T08:55:24.363Z,2180
2016-09-15T08:56:04.915Z,2190
2016-09-15T08:56:45.463Z,2220
2016-09-15T08:57:26.015Z,2260
2016-09-15T08:58:06.562Z,2280
2016-09-15T08:58:47.109Z,2270
2016-09-15T08:59:27.664Z,2235
2016-09-15T09:00:08.217Z,2180
2016-09-15T09:00:48.770Z,2180
2016-09-15T09:01:29.321Z,2170
2016-09-15T09:02:09.873Z,2165
2016-09-15T09:02:50.424Z,2215
2016-09-15T09:03:30.980Z,2270
2016-09-15T09:04:11.533Z,2300
2016-09-15T09:04:52.084Z,2325
2016-09-15T09:05:32.637Z,2330
2016-09-15T09:06:13.189Z,2325
2016-09-15T09:06:53.737Z,2305
2016-09-15T09:07:34.296Z,2315
2016-09-15T09:08:14.851Z,2300
2016-09-15T09:08:55.403Z,2315
2016-09-15T09:09:35.956Z,2330
2016-09-15T09:10:16.506Z,2330
2016-09-15T09:10:57.060Z,2365
2016-09-15T09:11:37.606Z,2395
2016-09-15T09:12:18.160Z,2485
2016-09-15T09:12:58.714Z,2530
2016-09-15T09:13:39.278Z,2520
2016-09-15T09:14:19.831Z,2440
2016-09-15T09:15:00.378Z,2370
2016-09-15T09:15:40.930Z,2330
2016-09-15T09:16:21.488Z,2365
2016-09-15T09:17:02.043Z,2410
2016-09-15T09:17:42.601Z,2490
2016-09-15T09:18:23.153Z,2555
2016-09-15T09:19:03.705Z,2580
2016-09-15T09:19:44.270Z,2530
2016-09-15T09:20:24.827Z,2515
2016-09-15T09:21:05.385Z,2510
2016-09-15T09:21:45.938Z,2515
2016-09-15T09:22:26.517Z,2515
2016-09-15T09:23:07.067Z,2555
2016-09-15T09:23:47.619Z,2515
2016-09-15T09:24:28.171Z,2510
2016-09-15T09:25:08.722Z,2515
2016-09-15T09:25:49.274Z,2540
2016-09-15T09:26:29.821Z,2550
2016-09-15T09:27:10.373Z,2540
2016-09-15T09:27:50.919Z,2510
2016-09-15T09:28:31.468Z,2500
2016-09-15T09:29:12.025Z,2535
2016-09-15T09:29:52.577Z,2595
2016-09-15T09:30:33.126Z,2610
2016-09-15T09:31:13.678Z,2645
2016-09-15T09:31:54.230Z,2650
2016-09-15T09:32:34.784Z,2650
2016-09-15T09:33:15.336Z,2635
2016-09-15T09:33:55.889Z,2680
2016-09-15T09:34:36.451Z,2680
2016-09-15T09:35:17.012Z,2695
2016-09-15T09:35:57.560Z,2715
2016-09-15T09:36:38.124Z,2745
2016-09-15T09:37:18.678Z,2740
2016-09-15T09:37:59.232Z,2715
2016-09-15T09:38:39.783Z,2705
2016-09-15T09:39:20.348Z,2725